Time;durP1;ratioP1;P1;durP2;ratioP2;P2;SDS_P1;SDS_P2;PMS_P1;PMS_P2;Temp;Humidity;BMP_temperature;BMP_pressure;BME280_temperature;BME280_humidity;BME280_pressure;Samples;Min_cycle;Max_cycle;Signal;HPM_P1;HPM_P2
2023/10/04 00:00:32;;;;;;;;;;;;;;;14.56;100.00;60892.56;4834530;28;19917;-93
2023/10/04 00:03:13;;;;;;;;;;;;;;;14.58;100.00;60892.56;4844308;28;20214;-92
2023/10/04 00:05:54;;;;;;;;;;;;;;;14.53;100.00;60892.56;4844132;28;19956;-92
2023/10/04 00:08:32;;;;;;;;;;;;;;;14.58;100.00;60892.56;4830218;28;19956;-92
2023/10/04 00:11:17;;;;;;;;;;;;;;;14.58;100.00;60892.56;4833461;28;19952;-93
2023/10/04 00:13:56;;;;;;;;;;;;;;;14.53;100.00;60892.56;4846101;28;19917;-91
2023/10/04 00:16:35;;;;;;;;;;;;;;;14.58;100.00;60892.56;4844497;28;19925;-93
2023/10/04 00:19:15;;;;;;;;;;;;;;;14.54;100.00;60892.56;4847992;28;19913;-92
2023/10/04 00:21:56;;;;;;;;;;;;;;;187.52;100.00;60892.56;4843365;28;20275;-93
2023/10/04 00:24:37;;;;;;;;;;;;;;;14.58;100.00;60892.56;4835931;28;19922;-92
2023/10/04 00:27:17;;;;;;;;;;;;;;;14.58;100.00;60892.56;4848121;28;19944;-91
2023/10/04 00:29:59;;;;;;;;;;;;;;;14.58;100.00;60892.56;4834877;28;19914;-93
2023/10/04 00:32:38;;;;;;;;;;;;;;;187.52;100.00;60892.56;4844812;28;19913;-93
2023/10/04 00:35:26;;;;;;;;;;;;;;;14.47;100.00;60892.56;4848979;28;19972;-93
2023/10/04 00:38:05;;;;;;;;;;;;;;;14.58;100.00;60892.56;4855394;28;19917;-93
2023/10/04 00:40:47;;;;;;;;;;;;;;;15.88;100.00;60892.56;4848863;28;19913;-92
2023/10/04 00:43:26;;;;;;;;;;;;;;;-145.06;100.00;60892.56;4846381;28;20331;-92
2023/10/04 00:46:05;;;;;;;;;;;;;;;14.58;100.00;60892.56;4848310;28;19918;-92
2023/10/04 00:48:45;;;;;;;;;;;;;;;15.88;100.00;60892.56;4847868;28;19917;-93
2023/10/04 00:51:26;;;;;;;;;;;;;;;15.88;100.00;60892.56;4851457;28;19913;-92
2023/10/04 00:54:15;;;;;;;;;;;;;;;14.58;100.00;60892.56;4848679;28;19917;-93
2023/10/04 00:56:55;;;;;;;;;;;;;;;14.40;100.00;60892.56;4850189;28;20246;-93
2023/10/04 00:59:35;;;;;;;;;;;;;;;14.58;100.00;60892.56;4836532;28;19948;-92
2023/10/04 01:02:19;;;;;;;;;;;;;;;14.58;100.00;60892.56;4843437;28;19913;-92
2023/10/04 01:04:58;;;;;;;;;;;;;;;15.88;100.00;60892.56;4851978;28;19913;-92
2023/10/04 01:07:41;;;;;;;;;;;;;;;15.88;100.00;60892.56;4846315;28;19925;-92
2023/10/04 01:10:24;;;;;;;;;;;;;;;14.58;100.00;60892.56;4838259;28;19917;-93
2023/10/04 01:13:09;;;;;;;;;;;;;;;14.33;100.00;60892.56;4851341;28;19917;-93
2023/10/04 01:15:59;;;;;;;;;;;;;;;15.88;100.00;60892.56;4842723;28;20371;-92
2023/10/04 01:18:38;;;;;;;;;;;;;;;14.58;100.00;60892.56;4847649;28;19913;-92
2023/10/04 01:21:17;;;;;;;;;;;;;;;21.08;100.00;60892.56;4851028;28;19913;-92
2023/10/04 01:23:57;;;;;;;;;;;;;;;-145.06;100.00;60892.56;4836825;28;19913;-93
2023/10/04 01:26:37;;;;;;;;;;;;;;;14.58;100.00;60892.56;4850728;28;19913;-92
2023/10/04 01:29:19;;;;;;;;;;;;;;;187.52;100.00;60892.56;4831985;28;19953;-92
2023/10/04 01:31:59;;;;;;;;;;;;;;;14.28;100.00;60892.56;4846586;28;19914;-94
2023/10/04 01:34:38;;;;;;;;;;;;;;;187.52;100.00;60892.56;4850157;28;19917;-92
2023/10/04 01:37:21;;;;;;;;;;;;;;;14.27;100.00;60892.56;4855757;28;22470;-92
2023/10/04 01:40:07;;;;;;;;;;;;;;;15.88;100.00;60892.56;4852118;28;19913;-93
2023/10/04 01:42:46;;;;;;;;;;;;;;;14.58;100.00;60892.56;4850827;28;20355;-92
2023/10/04 01:45:26;;;;;;;;;;;;;;;-145.06;100.00;60892.56;4850848;28;19925;-93
2023/10/04 01:48:07;;;;;;;;;;;;;;;-145.06;100.00;60892.56;4849958;28;19913;-92
2023/10/04 01:50:52;;;;;;;;;;;;;;;-145.06;100.00;60892.56;4860409;28;19917;-91
2023/10/04 01:53:35;;;;;;;;;;;;;;;-145.06;100.00;60892.56;4851905;28;20256;-92
2023/10/04 01:56:14;;;;;;;;;;;;;;;-145.06;100.00;60892.56;4843234;28;19921;-92
2023/10/04 01:58:56;;;;;;;;;;;;;;;-145.06;100.00;60892.56;4833823;28;19917;-94
2023/10/04 02:01:35;;;;;;;;;;;;;;;-145.06;100.00;60892.56;4837732;28;19917;-93
2023/10/04 02:04:14;;;;;;;;;;;;;;;-145.06;100.00;60892.56;4851924;28;19914;-92
2023/10/04 02:06:56;;;;;;;;;;;;;;;-145.06;100.00;60892.56;4833383;28;20224;-93
2023/10/04 02:09:38;;;;;;;;;;;;;;;-145.06;100.00;60892.56;4850304;28;19914;-92
2023/10/04 02:12:18;;;;;;;;;;;;;;;-145.06;100.00;60892.56;4844559;28;19914;-93
2023/10/04 02:14:59;;;;;;;;;;;;;;;-145.06;100.00;60892.56;4847155;28;19921;-92
2023/10/04 02:17:38;;;;;;;;;;;;;;;-145.06;100.00;60892.56;4849822;28;19914;-92
2023/10/04 02:20:23;;;;;;;;;;;;;;;-145.06;100.00;60892.56;4849267;28;19917;-92
2023/10/04 02:23:07;;;;;;;;;;;;;;;-145.06;100.00;60892.56;4849552;28;19913;-92
2023/10/04 02:25:47;;;;;;;;;;;;;;;-145.06;100.00;60892.56;4841709;28;19913;-92
2023/10/04 02:28:26;;;;;;;;;;;;;;;-145.06;100.00;60892.56;4848699;28;19921;-92
2023/10/04 02:31:05;;;;;;;;;;;;;;;-145.06;100.00;60892.56;4841281;28;19917;-93
2023/10/04 02:33:44;;;;;;;;;;;;;;;-145.06;100.00;60892.56;4842224;28;19913;-92
2023/10/04 02:36:23;;;;;;;;;;;;;;;-145.06;100.00;60892.56;4847612;28;19960;-92
2023/10/04 02:39:06;;;;;;;;;;;;;;;-145.06;100.00;60892.56;4870262;28;19913;-92
2023/10/04 02:41:47;;;;;;;;;;;;;;;-145.06;100.00;60892.56;4839104;28;19914;-92
2023/10/04 02:44:26;;;;;;;;;;;;;;;-145.06;100.00;60892.56;4842510;28;19917;-91
2023/10/04 02:47:08;;;;;;;;;;;;;;;-145.06;100.00;60892.56;4838258;28;19922;-92
2023/10/04 02:49:47;;;;;;;;;;;;;;;-145.06;100.00;60892.56;4846567;28;19917;-92
2023/10/04 02:52:29;;;;;;;;;;;;;;;-145.06;100.00;60892.56;4843577;28;19913;-91
2023/10/04 02:55:08;;;;;;;;;;;;;;;-145.06;100.00;60892.56;4834006;28;20267;-92
2023/10/04 02:58:10;;;;;;;;;;;;;;;-145.06;100.00;60892.56;4848147;28;19917;-93
2023/10/04 03:01:08;;;;;;;;;;;;;;;-145.06;100.00;60892.56;4848277;28;19913;-92
2023/10/04 03:03:51;;;;;;;;;;;;;;;-145.06;100.00;60892.56;4848437;28;19921;-90
2023/10/04 03:06:32;;;;;;;;;;;;;;;-145.06;100.00;60892.56;4848149;28;20139;-92
2023/10/04 03:09:12;;;;;;;;;;;;;;;-145.06;100.00;60892.56;4841289;28;19913;-92
2023/10/04 03:11:53;;;;;;;;;;;;;;;-145.06;100.00;60892.56;4869093;28;19917;-91
2023/10/04 03:14:32;;;;;;;;;;;;;;;-145.06;100.00;60892.56;4844841;28;19917;-93
2023/10/04 03:17:15;;;;;;;;;;;;;;;-145.06;100.00;60892.56;4848222;28;19964;-93
2023/10/04 03:19:55;;;;;;;;;;;;;;;-145.06;100.00;60892.56;4830089;28;19941;-92
2023/10/04 03:22:35;;;;;;;;;;;;;;;-145.06;100.00;60892.56;4845287;28;19914;-92
2023/10/04 03:25:17;;;;;;;;;;;;;;;-145.06;100.00;60892.56;4843202;28;20532;-93
2023/10/04 03:27:57;;;;;;;;;;;;;;;-145.06;100.00;60892.56;4848355;28;19988;-92
2023/10/04 03:30:36;;;;;;;;;;;;;;;-145.06;100.00;60892.56;4834518;28;19918;-94
2023/10/04 03:33:16;;;;;;;;;;;;;;;-145.06;100.00;60892.56;4844211;28;19914;-93
2023/10/04 03:35:58;;;;;;;;;;;;;;;-145.06;100.00;60892.56;4842993;28;19921;-94
2023/10/04 03:38:39;;;;;;;;;;;;;;;-145.06;100.00;60892.56;4842458;28;19956;-94
2023/10/04 03:41:19;;;;;;;;;;;;;;;-145.06;100.00;60892.56;4835077;28;19917;-92
2023/10/04 03:43:58;;;;;;;;;;;;;;;-145.06;100.00;60892.56;4848777;28;19913;-92
2023/10/04 03:46:39;;;;;;;;;;;;;;;-145.06;100.00;60892.56;4844748;28;19913;-94
2023/10/04 03:49:19;;;;;;;;;;;;;;;-145.06;100.00;60892.56;4854698;28;19960;-93
2023/10/04 03:51:58;;;;;;;;;;;;;;;-145.06;100.00;60892.56;4849576;28;19913;-92
2023/10/04 03:54:38;;;;;;;;;;;;;;;-145.06;100.00;60892.56;4845466;28;19913;-93
2023/10/04 03:57:19;;;;;;;;;;;;;;;-145.06;100.00;60892.56;4848363;28;19913;-93
2023/10/04 03:59:58;;;;;;;;;;;;;;;-145.06;100.00;60892.56;4852388;28;20370;-92
2023/10/04 04:02:40;;;;;;;;;;;;;;;-145.06;100.00;60892.56;4852672;28;19913;-94
2023/10/04 04:05:22;;;;;;;;;;;;;;;-145.06;100.00;60892.56;4851898;28;19917;-93
2023/10/04 04:08:03;;;;;;;;;;;;;;;-145.06;100.00;60892.56;4852010;28;19960;-91
2023/10/04 04:10:43;;;;;;;;;;;;;;;-145.06;100.00;60892.56;4845032;28;19913;-93
2023/10/04 04:13:23;;;;;;;;;;;;;;;-145.06;100.00;60892.56;4849214;28;19918;-93
2023/10/04 04:16:09;;;;;;;;;;;;;;;-145.06;100.00;60892.56;4848708;28;19917;-92
2023/10/04 04:18:51;;;;;;;;;;;;;;;-145.06;100.00;60892.56;4851704;28;19980;-92
2023/10/04 04:21:33;;;;;;;;;;;;;;;-145.06;100.00;60892.56;4833499;28;20378;-92
2023/10/04 04:24:12;;;;;;;;;;;;;;;-145.06;100.00;60892.56;4846374;28;20363;-92
2023/10/04 04:26:55;;;;;;;;;;;;;;;-145.06;100.00;60892.56;4844080;28;19913;-92
2023/10/04 04:29:35;;;;;;;;;;;;;;;-145.06;100.00;60892.56;4847054;28;19922;-90
2023/10/04 04:32:15;;;;;;;;;;;;;;;-145.06;100.00;60892.56;4841826;28;19918;-91
2023/10/04 04:34:54;;;;;;;;;;;;;;;-145.06;100.00;60892.56;4851087;28;19925;-93
2023/10/04 04:37:36;;;;;;;;;;;;;;;-145.06;100.00;60892.56;4842195;28;20257;-92
2023/10/04 04:40:21;;;;;;;;;;;;;;;-145.06;100.00;60892.56;4845727;28;19913;-93
2023/10/04 04:43:18;;;;;;;;;;;;;;;-145.06;100.00;60892.56;4852392;28;19913;-92
2023/10/04 04:45:57;;;;;;;;;;;;;;;-145.06;100.00;60892.56;4832934;28;20339;-93
2023/10/04 04:48:36;;;;;;;;;;;;;;;-145.06;100.00;60892.56;4850903;28;19973;-92
2023/10/04 04:51:15;;;;;;;;;;;;;;;-145.06;100.00;60892.56;4833180;28;19960;-92
2023/10/04 04:53:54;;;;;;;;;;;;;;;-145.06;100.00;60892.56;4845736;28;19913;-92
2023/10/04 04:56:34;;;;;;;;;;;;;;;-145.06;100.00;60892.56;4840073;28;19972;-94
2023/10/04 04:59:14;;;;;;;;;;;;;;;-145.06;100.00;60892.56;4851276;28;20000;-93
2023/10/04 05:01:55;;;;;;;;;;;;;;;-145.06;100.00;60892.56;4850815;28;19917;-93
2023/10/04 05:04:34;;;;;;;;;;;;;;;-145.06;100.00;60892.56;4850629;28;19956;-92
2023/10/04 05:07:13;;;;;;;;;;;;;;;-145.06;100.00;60892.56;4844147;28;19913;-92
2023/10/04 05:09:55;;;;;;;;;;;;;;;-145.06;100.00;60892.56;4847711;28;19914;-92
2023/10/04 05:12:35;;;;;;;;;;;;;;;-145.06;100.00;60892.56;4850563;28;20331;-93
2023/10/04 05:15:32;;;;;;;;;;;;;;;-145.06;100.00;60892.56;4850919;28;19945;-92
2023/10/04 05:18:14;;;;;;;;;;;;;;;-145.06;100.00;60892.56;4847696;28;19921;-92
2023/10/04 05:20:54;;;;;;;;;;;;;;;-145.06;100.00;60892.56;4839912;28;19913;-91
2023/10/04 05:23:34;;;;;;;;;;;;;;;-145.06;100.00;60892.56;4851014;28;19960;-93
2023/10/04 05:26:13;;;;;;;;;;;;;;;-145.06;100.00;60892.56;4850401;28;19917;-94
2023/10/04 05:28:56;;;;;;;;;;;;;;;-145.06;100.00;60892.56;4843388;28;20307;-90
2023/10/04 05:31:35;;;;;;;;;;;;;;;-145.06;100.00;60892.56;4851087;28;19913;-90
2023/10/04 05:34:14;;;;;;;;;;;;;;;-145.06;100.00;60892.56;4850847;28;19913;-92
2023/10/04 05:36:58;;;;;;;;;;;;;;;-145.06;100.00;60892.56;4837350;28;19921;-91
2023/10/04 05:39:38;;;;;;;;;;;;;;;-145.06;100.00;60892.56;4850430;28;19917;-91
2023/10/04 05:42:20;;;;;;;;;;;;;;;-145.06;100.00;60892.56;4850766;28;19913;-92
2023/10/04 05:44:59;;;;;;;;;;;;;;;-145.06;100.00;60892.56;4844122;28;19917;-92
2023/10/04 05:47:38;;;;;;;;;;;;;;;-145.06;100.00;60892.56;4845161;28;19913;-89
2023/10/04 05:50:18;;;;;;;;;;;;;;;-145.06;100.00;60892.56;4845255;28;19952;-91
2023/10/04 05:53:00;;;;;;;;;;;;;;;-145.06;100.00;60892.56;4861426;28;19918;-91
2023/10/04 05:55:39;;;;;;;;;;;;;;;-145.06;100.00;60892.56;4845717;28;20457;-91
2023/10/04 05:58:18;;;;;;;;;;;;;;;-145.06;100.00;60892.56;4843904;28;19914;-91
2023/10/04 06:00:57;;;;;;;;;;;;;;;-145.06;100.00;60892.56;4850506;28;19917;-91
2023/10/04 06:03:39;;;;;;;;;;;;;;;-145.06;100.00;60892.56;4850622;28;19913;-91
2023/10/04 06:06:19;;;;;;;;;;;;;;;-145.06;100.00;60892.56;4840205;28;19917;-92
2023/10/04 06:09:01;;;;;;;;;;;;;;;-145.06;100.00;60892.56;4852610;28;19913;-91
2023/10/04 06:11:40;;;;;;;;;;;;;;;-145.06;100.00;60892.56;4858532;28;19914;-91
2023/10/04 06:14:19;;;;;;;;;;;;;;;-145.06;100.00;60892.56;4857641;28;20020;-92
2023/10/04 06:17:08;;;;;;;;;;;;;;;-145.06;100.00;60892.56;4840144;28;19922;-91
2023/10/04 06:19:47;;;;;;;;;;;;;;;-145.06;100.00;60892.56;4849163;28;19913;-92
2023/10/04 06:22:26;;;;;;;;;;;;;;;-145.06;100.00;60892.56;4849693;28;19917;-92
2023/10/04 06:25:05;;;;;;;;;;;;;;;-145.06;100.00;60892.56;4849750;28;19925;-91
2023/10/04 06:27:45;;;;;;;;;;;;;;;-145.06;100.00;60892.56;4829868;28;19913;-92
2023/10/04 06:30:28;;;;;;;;;;;;;;;-145.06;100.00;60892.56;4847757;28;19913;-91
2023/10/04 06:33:08;;;;;;;;;;;;;;;-145.06;100.00;60892.56;4838415;28;19965;-93
2023/10/04 06:35:47;;;;;;;;;;;;;;;-145.06;100.00;60892.56;4840648;28;19917;-91
2023/10/04 06:38:45;;;;;;;;;;;;;;;-145.06;100.00;60892.56;4864614;28;19917;-90
2023/10/04 06:41:25;;;;;;;;;;;;;;;-145.06;100.00;60892.56;4868198;28;20355;-89
2023/10/04 06:44:07;;;;;;;;;;;;;;;-145.06;100.00;60892.56;4845084;28;19961;-91
2023/10/04 06:46:52;;;;;;;;;;;;;;;-145.06;100.00;60892.56;4863506;28;19920;-91
2023/10/04 06:49:31;;;;;;;;;;;;;;;-145.06;100.00;60892.56;4847560;28;20004;-90
2023/10/04 06:52:13;;;;;;;;;;;;;;;-145.06;100.00;60892.56;4839377;28;19914;-91
2023/10/04 06:55:02;;;;;;;;;;;;;;;-145.06;100.00;60892.56;4833104;28;19985;-92
2023/10/04 06:57:46;;;;;;;;;;;;;;;-145.06;100.00;60892.56;4846079;28;19913;-91
2023/10/04 07:00:26;;;;;;;;;;;;;;;-145.06;100.00;60892.56;4846532;28;19913;-92
2023/10/04 07:03:06;;;;;;;;;;;;;;;-145.06;100.00;60892.56;4844528;28;19922;-92
2023/10/04 07:05:47;;;;;;;;;;;;;;;-145.06;100.00;60892.56;4851609;28;19952;-92
2023/10/04 07:08:35;;;;;;;;;;;;;;;-145.06;100.00;60892.56;4841805;28;19921;-93
2023/10/04 07:14:59;;;;;;;;;;;;;;;-145.06;100.00;60892.56;4819075;28;19921;-91
2023/10/04 07:32:51;;;;;;;;;;;;;;;-145.06;100.00;60892.56;5683212;22;20908;-91
2023/10/04 07:35:31;;;;;;;;;;;;;;;-145.06;100.00;60892.56;4911264;28;19921;-92
2023/10/04 07:38:20;;;;;;;;;;;;;;;-145.06;100.00;60892.56;4904361;28;19913;-91
2023/10/04 07:41:18;;;;;;;;;;;;;;;-145.06;100.00;60892.56;4892439;28;19913;-92
2023/10/04 07:44:03;;;;;;;;;;;;;;;-145.06;100.00;60892.56;4884175;28;19913;-91
2023/10/04 07:47:01;;;;;;;;;;;;;;;-145.06;100.00;60892.56;4875060;28;20008;-92
2023/10/04 07:50:15;;;;;;;;;;;;;;;-145.06;100.00;60892.56;4835290;28;20247;-91
2023/10/04 07:53:06;;;;;;;;;;;;;;;;;;;;;
2023/10/04 07:55:47;;;;;;;;;;;;;;;-145.06;100.00;60892.56;4873363;28;19925;-91
2023/10/04 07:58:36;;;;;;;;;;;;;;;-145.06;100.00;60892.56;4890012;28;19917;-91
2023/10/04 08:01:18;;;;;;;;;;;;;;;-145.06;100.00;60892.56;4863497;28;19913;-90
2023/10/04 08:03:58;;;;;;;;;;;;;;;-145.06;100.00;60892.56;4873083;28;19913;-91
2023/10/04 08:07:11;;;;;;;;;;;;;;;;;;;;;
2023/10/04 08:13:31;;;;;;;;;;;;;;;-145.06;100.00;60892.56;4839199;28;19913;-93
2023/10/04 08:47:50;;;;;;;;;;;;;;;-145.06;100.00;60892.56;5954594;22;19915;-92
2023/10/04 13:55:07;;;;;;;;;;;;;;;-145.06;100.00;60892.56;4810015;28;20020;-91
2023/10/04 14:48:33;;;;;;;;;;;;;;;-145.06;100.00;60892.56;4863026;28;20330;-93
2023/10/04 14:51:11;;;;;;;;;;;;;;;-145.06;100.00;60892.56;4847239;28;19917;-91
2023/10/04 14:53:51;;;;;;;;;;;;;;;-145.06;100.00;60892.56;4842048;28;19918;-92
2023/10/04 14:56:30;;;;;;;;;;;;;;;-145.06;100.00;60892.56;4830422;28;19926;-91
2023/10/04 14:59:08;;;;;;;;;;;;;;;-145.06;100.00;60892.56;4831286;28;20438;-90
2023/10/04 15:01:50;;;;;;;;;;;;;;;-145.06;100.00;60892.56;4831485;28;19948;-92
2023/10/04 15:04:29;;;;;;;;;;;;;;;-145.06;100.00;60892.56;4826756;28;20366;-91
2023/10/04 15:07:09;;;;;;;;;;;;;;;-145.06;100.00;60892.56;4828525;28;19957;-91
2023/10/04 15:09:53;;;;;;;;;;;;;;;-145.06;100.00;60892.56;4831379;28;19914;-91
2023/10/04 15:12:32;;;;;;;;;;;;;;;-145.06;100.00;60892.56;4829992;28;19922;-91
2023/10/04 15:15:11;;;;;;;;;;;;;;;-145.06;100.00;60892.56;4827298;28;19930;-91
2023/10/04 15:17:53;;;;;;;;;;;;;;;18.47;100.00;60892.56;4836991;28;19921;-92
2023/10/04 15:20:32;;;;;;;;;;;;;;;18.46;100.00;60892.56;4831328;28;19913;-92
2023/10/04 15:23:13;;;;;;;;;;;;;;;18.43;100.00;60892.56;4828421;28;19917;-93
2023/10/04 15:25:52;;;;;;;;;;;;;;;18.42;100.00;60892.56;4829659;28;19914;-91
2023/10/04 15:28:31;;;;;;;;;;;;;;;18.40;100.00;60892.56;4823425;28;20351;-93
2023/10/04 15:31:12;;;;;;;;;;;;;;;18.39;100.00;60892.56;4831114;28;19925;-91
2023/10/04 15:33:53;;;;;;;;;;;;;;;18.39;100.00;60892.56;4831981;28;19913;-91
2023/10/04 15:36:32;;;;;;;;;;;;;;;18.38;100.00;60892.56;4830506;28;19921;-92
2023/10/04 15:39:20;;;;;;;;;;;;;;;18.37;100.00;60892.56;4823230;28;20096;-92
2023/10/04 15:42:01;;;;;;;;;;;;;;;18.37;100.00;60892.56;4825690;28;19949;-91
2023/10/04 15:44:40;;;;;;;;;;;;;;;18.38;100.00;60892.56;4837780;28;19914;-92
2023/10/04 15:47:20;;;;;;;;;;;;;;;18.40;100.00;60892.56;4839296;28;20284;-92
2023/10/04 15:50:00;;;;;;;;;;;;;;;18.40;100.00;60892.56;4829289;28;19917;-92
2023/10/04 15:52:39;;;;;;;;;;;;;;;18.43;100.00;60892.56;4831290;28;19913;-91
2023/10/04 15:55:18;;;;;;;;;;;;;;;18.42;100.00;60892.56;4832619;28;19922;-91
2023/10/04 15:57:57;;;;;;;;;;;;;;;18.41;100.00;60892.56;4832422;28;20534;-91
2023/10/04 16:01:19;;;;;;;;;;;;;;;18.40;100.00;60892.56;4833402;28;19913;-91
2023/10/04 16:03:39;;;;;;;;;;;;;;;18.41;100.00;60892.56;4839480;28;19917;-92
2023/10/04 16:06:18;;;;;;;;;;;;;;;18.40;100.00;60892.56;4832766;28;20276;-91
2023/10/04 16:08:58;;;;;;;;;;;;;;;18.40;100.00;60892.56;4826268;28;19944;-91
2023/10/04 16:11:37;;;;;;;;;;;;;;;18.40;100.00;60892.56;4829641;28;19917;-90
2023/10/04 16:14:16;;;;;;;;;;;;;;;18.41;100.00;60892.56;4847852;28;19914;-93
2023/10/04 16:16:55;;;;;;;;;;;;;;;18.42;100.00;60892.56;4834014;28;19925;-91
2023/10/04 16:19:34;;;;;;;;;;;;;;;18.43;100.00;60892.56;4830633;28;19913;-91
2023/10/04 16:22:12;;;;;;;;;;;;;;;18.43;100.00;60892.56;4832765;28;20084;-91
2023/10/04 16:24:51;;;;;;;;;;;;;;;18.44;100.00;60892.56;4833874;28;19917;-91
2023/10/04 16:27:30;;;;;;;;;;;;;;;18.43;100.00;104794.97;4834371;28;19913;-90
2023/10/04 16:30:11;;;;;;;;;;;;;;;18.41;100.00;60892.56;4833406;28;19945;-91
2023/10/04 16:32:50;;;;;;;;;;;;;;;18.39;100.00;60892.56;4837243;28;19961;-91
2023/10/04 16:35:29;;;;;;;;;;;;;;;18.34;100.00;60892.56;4828809;28;19922;-91
2023/10/04 16:38:08;;;;;;;;;;;;;;;18.32;100.00;60892.56;4833047;28;19917;-91
2023/10/04 16:40:47;;;;;;;;;;;;;;;18.29;100.00;60892.56;4836879;28;19956;-91
2023/10/04 16:43:26;;;;;;;;;;;;;;;-145.06;100.00;60892.56;4830089;28;19914;-91
2023/10/04 16:46:05;;;;;;;;;;;;;;;-145.06;100.00;60892.56;4833526;28;19921;-94
2023/10/04 16:48:44;;;;;;;;;;;;;;;-145.06;100.00;60892.56;4847805;28;19917;-91
2023/10/04 16:51:23;;;;;;;;;;;;;;;-145.06;100.00;60892.56;4829672;28;19913;-92
2023/10/04 16:54:04;;;;;;;;;;;;;;;-145.06;100.00;60892.56;4827446;28;19913;-92
2023/10/04 16:56:45;;;;;;;;;;;;;;;-145.06;100.00;60892.56;4828460;28;19922;-91
2023/10/04 16:59:24;;;;;;;;;;;;;;;-145.06;100.00;60892.56;4832236;28;19918;-91
2023/10/04 17:02:03;;;;;;;;;;;;;;;-145.06;100.00;60892.56;4839824;28;20387;-91
2023/10/04 17:04:42;;;;;;;;;;;;;;;-145.06;100.00;60892.56;4827344;28;20008;-91
2023/10/04 17:07:23;;;;;;;;;;;;;;;-145.06;100.00;60892.56;4838821;28;19917;-91
2023/10/04 17:10:04;;;;;;;;;;;;;;;-145.06;100.00;60892.56;4833756;28;19913;-91
2023/10/04 17:13:01;;;;;;;;;;;;;;;-145.06;100.00;60892.56;4840339;28;20364;-91
2023/10/04 17:15:42;;;;;;;;;;;;;;;-145.06;100.00;60892.56;4852679;28;19921;-90
2023/10/04 17:18:29;;;;;;;;;;;;;;;-145.06;100.00;60892.56;4840070;28;19918;-92
2023/10/04 17:21:10;;;;;;;;;;;;;;;-145.06;100.00;60892.56;4831919;28;20252;-91
2023/10/04 17:23:51;;;;;;;;;;;;;;;-145.06;100.00;60892.56;4820546;28;19914;-90
2023/10/04 17:29:56;;;;;;;;;;;;;;;-145.06;100.00;60892.56;4836673;28;19914;-91
2023/10/04 17:32:36;;;;;;;;;;;;;;;-145.06;100.00;60892.56;4831434;28;19918;-92
2023/10/04 17:35:18;;;;;;;;;;;;;;;-145.06;100.00;60892.56;4824791;28;19921;-90
2023/10/04 17:37:58;;;;;;;;;;;;;;;-145.06;100.00;60892.56;4829394;28;19918;-91
2023/10/04 17:40:37;;;;;;;;;;;;;;;-145.06;100.00;60892.56;4831990;28;19918;-91
2023/10/04 17:43:19;;;;;;;;;;;;;;;-145.06;100.00;60892.56;4838072;28;19917;-90
2023/10/04 17:45:58;;;;;;;;;;;;;;;-145.06;100.00;60892.56;4830352;28;19917;-91
2023/10/04 17:48:43;;;;;;;;;;;;;;;-145.06;100.00;60892.56;4831379;28;19917;-90
2023/10/04 17:51:24;;;;;;;;;;;;;;;-145.06;100.00;60892.56;4839732;28;20257;-91
2023/10/04 17:54:07;;;;;;;;;;;;;;;-145.06;100.00;60892.56;4825096;28;19918;-92
2023/10/04 17:56:46;;;;;;;;;;;;;;;-145.06;100.00;60892.56;4829583;28;20319;-91
2023/10/04 17:59:26;;;;;;;;;;;;;;;-145.06;100.00;60892.56;4827959;28;19917;-92
2023/10/04 18:02:22;;;;;;;;;;;;;;;-145.06;100.00;60892.56;4831791;28;19917;-90
2023/10/04 18:05:04;;;;;;;;;;;;;;;-145.06;100.00;60892.56;4832029;28;19913;-91
2023/10/04 18:07:54;;;;;;;;;;;;;;;-145.06;100.00;60892.56;4831132;28;19914;-91
2023/10/04 18:10:43;;;;;;;;;;;;;;;-145.06;100.00;60892.56;4830327;28;19917;-91
2023/10/04 18:13:40;;;;;;;;;;;;;;;;;;;;;
2023/10/04 18:16:43;;;;;;;;;;;;;;;-145.06;100.00;60892.56;4852612;28;19929;-92
2023/10/04 18:19:22;;;;;;;;;;;;;;;-145.06;100.00;60892.56;4829923;28;19914;-92
2023/10/04 18:25:21;;;;;;;;;;;;;;;-145.06;100.00;60892.56;4855285;28;19922;-90
2023/10/04 18:28:00;;;;;;;;;;;;;;;-145.06;100.00;60892.56;4823814;28;19922;-91
2023/10/04 18:30:39;;;;;;;;;;;;;;;-145.06;100.00;60892.56;4824998;28;20546;-91
2023/10/04 18:33:20;;;;;;;;;;;;;;;-145.06;100.00;60892.56;4830859;28;19913;-91
2023/10/04 18:36:13;;;;;;;;;;;;;;;-145.06;100.00;60892.56;4828782;28;19921;-93
2023/10/04 18:38:53;;;;;;;;;;;;;;;-145.06;100.00;60892.56;4830241;28;19917;-91
2023/10/04 18:41:32;;;;;;;;;;;;;;;-145.06;100.00;60892.56;4829124;28;19918;-92
2023/10/04 18:44:11;;;;;;;;;;;;;;;-145.06;100.00;60892.56;4851294;28;20411;-91
2023/10/04 18:46:52;;;;;;;;;;;;;;;-145.06;100.00;60892.56;4828277;28;19922;-92
2023/10/04 18:49:35;;;;;;;;;;;;;;;-145.06;100.00;60892.56;4828891;28;19918;-92
2023/10/04 18:52:14;;;;;;;;;;;;;;;-145.06;100.00;60892.56;4824184;28;19918;-92
2023/10/04 18:54:53;;;;;;;;;;;;;;;-145.06;100.00;60892.56;4829504;28;20260;-91
2023/10/04 18:57:40;;;;;;;;;;;;;;;-145.06;100.00;60892.56;4824389;28;19925;-92
2023/10/04 19:00:19;;;;;;;;;;;;;;;-145.06;100.00;60892.56;4823642;28;19926;-90
2023/10/04 19:02:58;;;;;;;;;;;;;;;-145.06;100.00;60892.56;4826078;28;19917;-89
2023/10/04 19:05:37;;;;;;;;;;;;;;;-145.06;100.00;60892.56;4822248;28;20249;-93
2023/10/04 19:08:20;;;;;;;;;;;;;;;-145.06;100.00;60892.56;4825525;28;19921;-91
2023/10/04 19:11:01;;;;;;;;;;;;;;;-145.06;100.00;60892.56;4834131;28;20327;-93
2023/10/04 19:13:40;;;;;;;;;;;;;;;-145.06;100.00;60892.56;4835649;28;20355;-90
2023/10/04 19:16:24;;;;;;;;;;;;;;;-145.06;100.00;60892.56;4820080;28;19926;-91
2023/10/04 19:19:09;;;;;;;;;;;;;;;-145.06;100.00;60892.56;4827858;28;20724;-90
2023/10/04 19:21:49;;;;;;;;;;;;;;;-145.06;100.00;60892.56;4828086;28;20363;-92
2023/10/04 19:24:29;;;;;;;;;;;;;;;-145.06;100.00;60892.56;4826280;28;19957;-90
2023/10/04 19:27:08;;;;;;;;;;;;;;;-145.06;100.00;60892.56;4825253;28;19957;-90
2023/10/04 19:29:47;;;;;;;;;;;;;;;-145.06;100.00;60892.56;4828053;28;19918;-89
2023/10/04 19:32:27;;;;;;;;;;;;;;;-145.06;100.00;60892.56;4823379;28;19917;-90
2023/10/04 19:35:06;;;;;;;;;;;;;;;-145.06;100.00;60892.56;4821953;28;19921;-91
2023/10/04 19:37:45;;;;;;;;;;;;;;;-145.06;100.00;60892.56;4822502;28;19964;-88
2023/10/04 19:40:24;;;;;;;;;;;;;;;-145.06;100.00;60892.56;4825844;28;19918;-90
2023/10/04 19:43:04;;;;;;;;;;;;;;;-145.06;100.00;60892.56;4826939;28;19921;-90
2023/10/04 19:45:48;;;;;;;;;;;;;;;-145.06;100.00;60892.56;4828620;28;19957;-90
2023/10/04 19:48:27;;;;;;;;;;;;;;;-145.06;100.00;60892.56;4824604;28;19965;-89
2023/10/04 19:51:07;;;;;;;;;;;;;;;-145.06;100.00;60892.56;4824939;28;19921;-90
2023/10/04 19:53:46;;;;;;;;;;;;;;;-145.06;100.00;60892.56;4825731;28;19925;-91
2023/10/04 19:56:25;;;;;;;;;;;;;;;-145.06;100.00;60892.56;4826141;28;19921;-91
2023/10/04 19:59:04;;;;;;;;;;;;;;;-145.06;100.00;60892.56;4819994;28;20008;-91
2023/10/04 20:01:43;;;;;;;;;;;;;;;15.57;100.00;60892.56;4824363;28;19925;-91
2023/10/04 20:04:23;;;;;;;;;;;;;;;-145.06;100.00;60892.56;4824306;28;19937;-91
2023/10/04 20:07:04;;;;;;;;;;;;;;;-145.06;100.00;60892.56;4820591;28;19921;-92
2023/10/04 20:09:45;;;;;;;;;;;;;;;-145.06;100.00;60892.56;4825845;28;19917;-91
2023/10/04 20:12:25;;;;;;;;;;;;;;;-145.06;100.00;60892.56;4826843;28;19926;-91
2023/10/04 20:15:04;;;;;;;;;;;;;;;-145.06;100.00;60892.56;4827213;28;19917;-91
2023/10/04 20:17:44;;;;;;;;;;;;;;;-145.06;100.00;60892.56;4824600;28;19921;-90
2023/10/04 20:20:26;;;;;;;;;;;;;;;-145.06;100.00;60892.56;4825061;28;19921;-91
2023/10/04 20:23:05;;;;;;;;;;;;;;;-145.06;100.00;60892.56;4825221;28;19956;-91
2023/10/04 20:25:47;;;;;;;;;;;;;;;-145.06;100.00;60892.56;4828273;28;19953;-90
2023/10/04 20:28:26;;;;;;;;;;;;;;;-145.06;100.00;60892.56;4823716;28;19917;-91
2023/10/04 20:31:09;;;;;;;;;;;;;;;-145.06;100.00;60892.56;4823551;28;20423;-90
2023/10/04 20:33:48;;;;;;;;;;;;;;;-145.06;100.00;60892.56;4826467;28;19913;-91